Worcester, MA (01601)

5:59 AM EDT on August 29, 2015 (GMT -0400)
Thornton Rd. | | Change Station
CLOSE
Current Station
Personal Weather Station
Location: Worcester, MA
Elevation: 656 ft
Nearby Weather Stations

Elev 656 ft 42.30 °N, 71.79 °W | Updated 2 seconds ago

Clear
Clear
57.9 °F
Feels Like 57.9 °F
N
0.0
Wind Variable Wind from South
Gusts 0.0 mph

Today
High -- | Low -- °F
--% Chance of Precip.
Yesterday
High -- | Low -- °F
Precip. -- in
6:09 AM 7:26 PM
Full, 100% visible
Pressure 30.19 in
Visibility 10.0 miles
Clouds Clear
Dew Point 41 °F
Humidity 54%
Rainfall 0.00 in
Snow Depth Not available.
UV 0 out of 12
Pollen 9.90 out of 12
Air Quality Not available.
Flu Activity Not available.
METAR KORH 290954Z AUTO 27006KT 10SM CLR 15/11 A3020 RMK AO2 SLP224 T01500106
Pressure 30.19 in
Visibility 10.0 miles
Clouds Clear
Dew Point 41 °F
Humidity 54%
Rainfall 0.00 in
Snow Depth Not available.
UV 0 out of 12
Pollen 9.90 out of 12
Air Quality Not available.
Flu Activity Not available.
METAR KORH 290954Z AUTO 27006KT 10SM CLR 15/11 A3020 RMK AO2 SLP224 T01500106

10-Day Weather Forecast

×

Almanac

Astronomy

Aug. 29, 2015 Rise Set
Actual Time
Civil Twilight
Nautical Twilight
Astronomical Twilight
Moon
Length of Visible Light
Length of Day
Tomorrow will be .
, % of the Moon is Illuminated

Today's Extremes

State Highs State Lows

Community

WunderPhotos

Upload Photos

1,850,634 photos uploaded!

WunderBlogs® & News

Nearby

Air Quality

  Air Quality AQ Index Pollutant
Not available.

Snow Depth

Station Depth Elevation

Earthquake Activity

City Distance Mag. Time & Date
Minimum magnitude displayed is 2.5.

Coastal Water Temperatures

Place Temperature

Stations

Nearby Weather Stations

Station Location Temp. Windchill Dew Point Humidity Wind Precip. Elev Updated Type